Time;durP1;ratioP1;P1;durP2;ratioP2;P2;SDS_P1;SDS_P2;PMS_P1;PMS_P2;Temp;Humidity;BMP_temperature;BMP_pressure;BME280_temperature;BME280_humidity;BME280_pressure;Samples;Min_cycle;Max_cycle;Signal;HPM_P1;HPM_P2
2024/04/19 00:00:06;;;;;;;4.03;2.97;;;;;;;2.99;72.15;92945.38;565565;26;794;-73
2024/04/19 00:00:21;;;;;;;4.32;2.72;;;;;;;2.95;72.16;92936.00;568838;26;945;-73
2024/04/19 00:00:37;;;;;;;3.90;2.80;;;;;;;3.01;72.16;92948.34;568999;26;866;-73
2024/04/19 00:00:53;;;;;;;2.95;2.65;;;;;;;3.00;72.32;92949.59;568855;26;901;-73
2024/04/19 00:01:09;;;;;;;3.22;2.78;;;;;;;2.87;72.04;92922.22;568999;26;846;-73
2024/04/19 00:01:24;;;;;;;3.97;3.05;;;;;;;3.01;72.16;92945.59;568958;26;857;-73
2024/04/19 00:01:40;;;;;;;3.55;2.88;;;;;;;3.02;71.77;92946.34;568849;26;968;-73
2024/04/19 00:01:56;;;;;;;4.18;2.85;;;;;;;3.02;71.97;92954.53;568996;26;905;-73
2024/04/19 00:02:11;;;;;;;3.90;2.90;;;;;;;3.03;71.96;92947.84;568865;26;967;-73
2024/04/19 00:02:27;;;;;;;3.47;3.10;;;;;;;3.02;71.93;92949.81;568916;26;829;-73
2024/04/19 00:02:44;;;;;;;3.83;3.10;;;;;;;3.03;71.85;92948.56;568988;26;914;-73
2024/04/19 00:02:59;;;;;;;3.95;3.15;;;;;;;3.04;71.83;92950.03;569004;26;953;-73
2024/04/19 00:03:14;;;;;;;3.47;3.10;;;;;;;3.03;71.90;92947.84;569059;26;758;-73
2024/04/19 00:03:30;;;;;;;3.45;3.00;;;;;;;3.03;71.69;92947.84;568937;26;956;-72
2024/04/19 00:03:46;;;;;;;3.42;2.78;;;;;;;3.04;71.77;92949.31;568901;26;872;-72
2024/04/19 00:04:01;;;;;;;3.73;2.80;;;;;;;3.04;72.06;92947.31;568866;26;838;-72
2024/04/19 00:04:17;;;;;;;5.95;3.03;;;;;;;3.05;71.91;92951.50;568902;26;1029;-72
2024/04/19 00:04:32;;;;;;;5.20;3.00;;;;;;;3.04;71.65;92941.88;568997;26;766;-73
2024/04/19 00:04:47;;;;;;;3.60;3.10;;;;;;;3.05;71.81;92951.50;568859;26;912;-72
2024/04/19 00:05:03;;;;;;;5.13;3.33;;;;;;;3.06;71.92;92955.72;568957;26;832;-72
2024/04/19 00:05:19;;;;;;;5.15;3.47;;;;;;;3.05;71.73;92951.50;568896;26;802;-72
2024/04/19 00:05:40;;;;;;;4.60;3.73;;;;;;;3.06;71.63;92953.00;569052;26;892;-72
2024/04/19 00:05:55;;;;;;;4.63;3.70;;;;;;;3.04;71.88;92949.31;569015;26;857;-72
2024/04/19 00:06:11;;;;;;;4.70;3.90;;;;;;;3.02;71.58;92949.06;568927;26;957;-72
2024/04/19 00:06:26;;;;;;;4.77;3.83;;;;;;;3.00;71.81;92949.59;568730;26;883;-72
2024/04/19 00:06:42;;;;;;;6.55;3.92;;;;;;;3.00;71.85;92946.13;568868;26;881;-72
2024/04/19 00:06:57;;;;;;;6.40;3.90;;;;;;;3.00;71.85;92949.59;568954;26;967;-72
2024/04/19 00:07:13;;;;;;;5.93;4.10;;;;;;;2.96;71.88;92953.84;568892;26;846;-72
2024/04/19 00:07:28;;;;;;;6.10;4.20;;;;;;;2.76;72.16;92935.22;569007;26;789;-72
2024/04/19 00:07:43;;;;;;;5.97;3.83;;;;;;;2.90;72.27;92962.06;568993;26;841;-72
2024/04/19 00:07:59;;;;;;;5.82;3.65;;;;;;;2.87;72.44;92952.22;568948;26;908;-72
2024/04/19 00:08:14;;;;;;;6.33;3.87;;;;;;;2.84;72.54;92955.94;569032;26;821;-72
2024/04/19 00:08:30;;;;;;;7.43;4.07;;;;;;;2.80;72.51;92950.03;568903;26;794;-72
2024/04/19 00:08:45;;;;;;;6.50;3.50;;;;;;;2.81;72.52;92958.97;568930;26;817;-72
2024/04/19 00:09:01;;;;;;;4.40;3.05;;;;;;;2.78;72.96;92954.53;568942;26;861;-72
2024/04/19 00:09:16;;;;;;;5.23;3.30;;;;;;;2.75;72.81;92953.56;568906;26;861;-72
2024/04/19 00:09:32;;;;;;;5.15;3.28;;;;;;;2.73;73.00;92950.59;568973;26;789;-72
2024/04/19 00:09:47;;;;;;;3.90;3.07;;;;;;;2.72;73.13;92957.31;568942;26;1070;-72
2024/04/19 00:10:03;;;;;;;5.60;3.45;;;;;;;2.71;73.15;92955.81;568993;26;916;-72
2024/04/19 00:10:18;;;;;;;5.57;3.53;;;;;;;2.71;73.06;92960.53;568799;26;865;-72
2024/04/19 00:10:37;;;;;;;4.03;3.15;;;;;;;2.71;73.32;92958.56;568865;26;821;-72
2024/04/19 00:10:54;;;;;;;4.93;3.40;;;;;;;2.72;73.29;92954.59;568881;26;1284;-74
2024/04/19 00:11:10;;;;;;;5.97;3.90;;;;;;;2.74;73.48;92954.06;568693;26;847;-72
2024/04/19 00:11:25;;;;;;;4.77;3.23;;;;;;;2.73;73.35;92944.44;568873;26;774;-72
2024/04/19 00:11:41;;;;;;;4.00;3.10;;;;;;;2.72;73.58;92959.28;568939;26;905;-72
2024/04/19 00:11:56;;;;;;;5.00;3.40;;;;;;;2.70;73.73;92956.34;568873;26;897;-73
2024/04/19 00:12:13;;;;;;;5.28;3.40;;;;;;;2.67;73.77;92949.91;568925;26;888;-72
2024/04/19 00:12:28;;;;;;;5.93;3.53;;;;;;;2.63;73.85;92949.47;568933;26;870;-72
2024/04/19 00:12:44;;;;;;;5.97;3.60;;;;;;;2.58;74.07;92946.81;568831;26;905;-72
2024/04/19 00:13:00;;;;;;;4.70;3.30;;;;;;;2.54;74.08;92947.06;568953;26;845;-72
2024/04/19 00:13:15;;;;;;;4.88;3.38;;;;;;;2.47;74.06;92952.34;568798;26;1081;-72
2024/04/19 00:13:31;;;;;;;6.50;3.60;;;;;;;2.43;74.30;92958.06;568807;26;977;-72
2024/04/19 00:13:46;;;;;;;6.00;3.43;;;;;;;2.40;74.44;92950.91;568933;26;789;-72
2024/04/19 00:14:01;;;;;;;4.72;3.53;;;;;;;2.38;74.58;92955.41;568788;26;846;-72
2024/04/19 00:14:17;;;;;;;5.97;3.47;;;;;;;2.35;74.46;92957.13;568980;26;834;-72
2024/04/19 00:14:33;;;;;;;7.17;3.40;;;;;;;2.35;74.73;92957.13;568934;26;802;-72
2024/04/19 00:14:48;;;;;;;7.53;3.33;;;;;;;2.36;74.97;92950.44;568850;26;790;-73
2024/04/19 00:15:05;;;;;;;5.80;3.22;;;;;;;2.37;74.72;92948.44;568893;26;842;-72
2024/04/19 00:15:21;;;;;;;5.43;3.15;;;;;;;2.36;75.03;92947.72;568791;26;865;-72
2024/04/19 00:15:38;;;;;;;3.93;3.30;;;;;;;2.38;75.09;92947.22;568854;26;837;-72
2024/04/19 00:15:56;;;;;;;4.00;3.50;;;;;;;2.37;74.99;92948.44;568954;26;830;-72
2024/04/19 00:16:12;;;;;;;4.38;3.65;;;;;;;2.36;75.12;92950.44;568736;26;841;-72
2024/04/19 00:16:27;;;;;;;6.30;4.00;;;;;;;2.35;75.08;92943.53;568887;26;834;-72
2024/04/19 00:16:43;;;;;;;6.33;3.90;;;;;;;2.35;75.07;92946.25;568929;26;1008;-72
2024/04/19 00:16:58;;;;;;;3.77;3.27;;;;;;;2.37;75.14;92943.75;568955;26;861;-73
2024/04/19 00:17:14;;;;;;;3.87;3.00;;;;;;;2.39;75.07;92951.41;568924;26;880;-72
2024/04/19 00:17:29;;;;;;;4.13;3.00;;;;;;;2.40;75.18;92948.19;568833;26;832;-72
2024/04/19 00:17:45;;;;;;;4.05;3.05;;;;;;;2.44;74.95;92947.91;568959;26;959;-72
2024/04/19 00:18:00;;;;;;;5.53;3.30;;;;;;;2.45;74.90;92943.94;569024;26;762;-72
2024/04/19 00:18:16;;;;;;;5.38;2.95;;;;;;;2.46;74.91;92954.31;564797;26;1867;-72
2024/04/19 00:18:31;;;;;;;3.87;2.97;;;;;;;2.47;74.96;92947.63;564933;26;861;-72
2024/04/19 00:18:47;;;;;;;3.65;3.13;;;;;;;2.45;74.93;92950.13;564793;26;972;-72
2024/04/19 00:19:02;;;;;;;3.43;2.97;;;;;;;2.40;74.64;92956.38;564892;26;782;-72
2024/04/19 00:19:18;;;;;;;4.28;3.40;;;;;;;2.33;75.04;92946.00;564829;26;774;-72
2024/04/19 00:19:33;;;;;;;5.53;3.83;;;;;;;2.24;75.23;92955.25;564934;26;821;-72
2024/04/19 00:19:49;;;;;;;5.93;3.47;;;;;;;2.20;75.46;92951.31;564967;26;814;-72
2024/04/19 00:20:05;;;;;;;4.47;3.13;;;;;;;2.18;75.57;92954.56;565645;26;869;-72
2024/04/19 00:20:21;;;;;;;3.78;3.35;;;;;;;2.02;75.45;92936.34;568837;26;955;-72
2024/04/19 00:20:38;;;;;;;3.63;3.28;;;;;;;2.15;75.36;92952.09;568892;26;959;-72
2024/04/19 00:20:57;;;;;;;3.45;3.15;;;;;;;2.14;75.36;92948.63;569034;26;944;-72
2024/04/19 00:21:13;;;;;;;4.50;3.20;;;;;;;2.15;75.37;92954.81;568914;26;849;-72
2024/04/19 00:21:28;;;;;;;4.83;3.37;;;;;;;2.15;75.39;92952.09;569004;26;810;-72
2024/04/19 00:21:43;;;;;;;3.90;3.20;;;;;;;2.17;75.37;92955.03;568737;26;928;-72
2024/04/19 00:21:59;;;;;;;3.53;3.13;;;;;;;2.18;75.37;92949.09;568875;26;1278;-73
2024/04/19 00:22:14;;;;;;;3.90;3.30;;;;;;;2.20;75.36;92952.06;568963;26;896;-72
2024/04/19 00:22:30;;;;;;;4.25;3.25;;;;;;;2.23;75.22;92953.75;568848;26;929;-72
2024/04/19 00:22:45;;;;;;;6.23;3.27;;;;;;;2.24;75.14;92952.53;568935;26;766;-72
2024/04/19 00:23:01;;;;;;;6.95;3.65;;;;;;;2.25;75.38;92956.00;568812;26;881;-72
2024/04/19 00:23:16;;;;;;;5.23;3.37;;;;;;;2.26;75.10;92944.59;568926;26;965;-72
2024/04/19 00:23:31;;;;;;;5.10;3.08;;;;;;;2.28;74.98;92952.97;568876;26;904;-72
2024/04/19 00:23:47;;;;;;;6.33;3.20;;;;;;;2.27;75.05;92959.66;568877;26;837;-72
2024/04/19 00:24:03;;;;;;;5.68;2.83;;;;;;;2.24;74.73;92949.81;568974;26;801;-73
2024/04/19 00:24:18;;;;;;;5.37;2.97;;;;;;;2.11;74.66;92935.28;568679;26;932;-72
2024/04/19 00:24:33;;;;;;;5.85;3.55;;;;;;;2.21;74.53;92953.53;568822;26;901;-72
2024/04/19 00:24:49;;;;;;;7.30;3.80;;;;;;;2.19;74.58;92956.03;568918;26;821;-72
2024/04/19 00:25:05;;;;;;;8.43;3.58;;;;;;;2.17;74.55;92957.75;569001;26;1029;-72
2024/04/19 00:25:20;;;;;;;6.00;3.30;;;;;;;2.11;74.69;92957.06;568937;26;750;-72
2024/04/19 00:25:36;;;;;;;3.87;3.40;;;;;;;1.93;74.76;92939.38;568944;26;798;-72
2024/04/19 00:25:52;;;;;;;3.80;3.47;;;;;;;1.99;74.87;92959.13;568810;26;939;-72
2024/04/19 00:26:08;;;;;;;4.13;3.40;;;;;;;1.95;74.99;92955.22;568837;26;877;-72
2024/04/19 00:26:24;;;;;;;6.57;3.40;;;;;;;1.91;75.11;92958.19;568979;26;864;-72
2024/04/19 00:26:39;;;;;;;6.95;3.50;;;;;;;1.89;75.21;92954.50;568843;26;892;-72
2024/04/19 00:26:55;;;;;;;3.97;3.13;;;;;;;1.85;75.19;92964.91;568952;26;933;-73
2024/04/19 00:27:10;;;;;;;3.72;2.88;;;;;;;1.81;75.34;92959.75;568824;26;818;-72
2024/04/19 00:27:26;;;;;;;3.40;2.90;;;;;;;1.80;75.36;92960.97;568981;26;939;-72
2024/04/19 00:27:41;;;;;;;4.60;3.83;;;;;;;1.81;75.50;92964.44;568929;26;856;-72
2024/04/19 00:27:57;;;;;;;4.75;3.80;;;;;;;1.79;75.58;92962.25;568920;26;797;-73
2024/04/19 00:28:13;;;;;;;3.23;2.93;;;;;;;1.69;75.67;92946.72;568933;26;773;-72
2024/04/19 00:28:28;;;;;;;3.40;2.95;;;;;;;1.82;75.38;92958.50;568841;26;826;-72
2024/04/19 00:28:44;;;;;;;4.78;2.88;;;;;;;1.85;75.42;92964.91;568867;26;856;-72
2024/04/19 00:28:59;;;;;;;4.67;3.23;;;;;;;1.87;75.39;92959.72;568926;26;951;-73
2024/04/19 00:29:14;;;;;;;3.70;3.40;;;;;;;1.89;75.47;92960.69;569255;26;813;-71
2024/04/19 00:29:30;;;;;;;4.43;3.37;;;;;;;1.93;75.48;92960.41;569212;26;861;-72
2024/04/19 00:29:45;;;;;;;5.28;3.88;;;;;;;1.97;75.38;92963.63;569309;26;919;-72
2024/04/19 00:30:02;;;;;;;4.63;4.03;;;;;;;2.00;75.17;92962.59;569243;26;802;-72
2024/04/19 00:30:17;;;;;;;4.38;3.75;;;;;;;2.03;75.20;92961.59;569334;26;841;-73
2024/04/19 00:30:33;;;;;;;4.22;3.40;;;;;;;1.93;75.07;92938.63;569309;26;818;-72
2024/04/19 00:30:49;;;;;;;5.03;3.40;;;;;;;2.09;74.89;92965.75;569133;26;916;-72
2024/04/19 00:31:04;;;;;;;5.23;3.60;;;;;;;2.12;74.91;92959.28;569377;26;884;-72
2024/04/19 00:31:20;;;;;;;5.22;3.63;;;;;;;2.15;74.91;92960.25;569177;26;913;-72
2024/04/19 00:31:35;;;;;;;5.43;3.47;;;;;;;2.16;74.73;92967.19;569208;26;829;-72
2024/04/19 00:31:50;;;;;;;4.45;3.28;;;;;;;2.19;74.54;92958.75;569296;26;1080;-72
2024/04/19 00:32:06;;;;;;;3.57;3.17;;;;;;;2.20;74.31;92960.22;569399;26;852;-72
2024/04/19 00:32:22;;;;;;;3.17;2.83;;;;;;;2.21;74.35;92960.94;569277;26;936;-72
2024/04/19 00:32:37;;;;;;;2.97;2.67;;;;;;;2.23;74.46;92961.22;569259;26;810;-72
2024/04/19 00:32:52;;;;;;;3.15;2.85;;;;;;;2.23;74.44;92958.47;569271;26;943;-72
2024/04/19 00:33:08;;;;;;;3.20;2.90;;;;;;;2.19;74.43;92966.16;569235;26;833;-72
2024/04/19 00:33:23;;;;;;;3.20;2.90;;;;;;;2.15;74.52;92962.97;569343;26;841;-72
2024/04/19 00:33:39;;;;;;;4.07;2.80;;;;;;;2.11;74.54;92965.25;569185;26;810;-72
2024/04/19 00:33:54;;;;;;;4.00;2.95;;;;;;;2.08;74.64;92969.00;569377;26;862;-72
2024/04/19 00:34:10;;;;;;;3.23;2.93;;;;;;;2.05;74.55;92959.84;569100;26;936;-71
2024/04/19 00:34:25;;;;;;;3.17;2.87;;;;;;;2.04;74.69;92966.53;569294;26;916;-72
2024/04/19 00:34:41;;;;;;;3.30;3.00;;;;;;;2.02;74.82;92962.81;569143;26;853;-72
2024/04/19 00:34:56;;;;;;;3.23;2.90;;;;;;;1.98;75.07;92968.56;569357;26;940;-72
2024/04/19 00:35:11;;;;;;;3.60;3.00;;;;;;;1.97;75.20;92969.06;569277;26;814;-72
2024/04/19 00:35:27;;;;;;;3.13;2.83;;;;;;;1.91;75.34;92960.16;569172;26;988;-72
2024/04/19 00:35:43;;;;;;;3.13;2.83;;;;;;;1.87;75.18;92965.91;569259;26;829;-72
2024/04/19 00:35:58;;;;;;;3.10;2.80;;;;;;;1.83;75.52;92962.72;569316;26;838;-72
2024/04/19 00:36:14;;;;;;;3.20;2.77;;;;;;;1.82;75.67;92963.22;569294;26;813;-72
2024/04/19 00:36:29;;;;;;;3.75;3.03;;;;;;;1.80;75.75;92965.72;569188;26;802;-72
2024/04/19 00:36:45;;;;;;;3.90;2.80;;;;;;;1.73;75.98;92964.25;569279;26;1837;-72
2024/04/19 00:37:00;;;;;;;3.57;2.70;;;;;;;1.70;76.11;92959.81;569225;26;818;-72
2024/04/19 00:37:16;;;;;;;3.20;2.90;;;;;;;1.67;76.38;92968.25;569283;26;921;-72
2024/04/19 00:37:33;;;;;;;3.10;2.80;;;;;;;1.65;76.36;92954.38;569279;26;917;-72
2024/04/19 00:37:49;;;;;;;3.42;2.80;;;;;;;1.64;76.45;92961.09;569208;26;925;-72
2024/04/19 00:38:04;;;;;;;3.70;2.80;;;;;;;1.63;76.55;92956.88;569354;26;960;-72
2024/04/19 00:38:20;;;;;;;2.75;2.55;;;;;;;1.63;76.59;92962.31;569102;26;830;-72
2024/04/19 00:38:35;;;;;;;2.77;2.57;;;;;;;1.64;76.63;92967.28;569283;26;814;-71
2024/04/19 00:38:53;;;;;;;2.90;2.70;;;;;;;1.66;76.77;92964.03;569312;26;786;-72
2024/04/19 00:39:08;;;;;;;2.85;2.58;;;;;;;1.70;76.71;92964.50;569233;26;877;-72
2024/04/19 00:39:23;;;;;;;2.78;2.30;;;;;;;1.72;76.63;92968.22;569220;26;840;-72
2024/04/19 00:39:39;;;;;;;3.03;2.60;;;;;;;1.75;76.55;92963.75;569095;26;960;-72
2024/04/19 00:39:55;;;;;;;2.88;2.58;;;;;;;1.77;76.56;92963.97;569365;26;904;-72
2024/04/19 00:40:10;;;;;;;2.60;2.40;;;;;;;1.80;76.43;92969.16;569242;26;834;-73
2024/04/19 00:40:26;;;;;;;2.90;2.60;;;;;;;1.82;76.61;92965.94;569278;26;781;-72
2024/04/19 00:40:41;;;;;;;3.17;2.85;;;;;;;1.71;76.34;92944.22;569278;26;821;-72
2024/04/19 00:40:57;;;;;;;3.77;2.90;;;;;;;1.81;76.58;92973.38;569170;26;856;-72
2024/04/19 00:41:12;;;;;;;3.20;2.40;;;;;;;1.84;76.46;92960.72;569173;26;912;-72
2024/04/19 00:41:28;;;;;;;2.80;2.22;;;;;;;1.83;76.51;92970.13;569266;26;849;-72
2024/04/19 00:41:43;;;;;;;3.47;2.60;;;;;;;1.81;76.62;92961.72;569212;26;802;-72
2024/04/19 00:41:58;;;;;;;3.50;2.75;;;;;;;1.77;76.62;92970.16;569258;26;943;-73
2024/04/19 00:42:14;;;;;;;3.63;2.77;;;;;;;1.73;76.46;92969.72;565268;26;872;-71
2024/04/19 00:42:30;;;;;;;4.43;2.80;;;;;;;1.72;76.63;92967.47;564995;26;890;-72
2024/04/19 00:42:49;;;;;;;4.13;2.80;;;;;;;1.68;76.62;92959.59;565252;26;904;-72
2024/04/19 00:43:05;;;;;;;4.05;3.10;;;;;;;1.67;76.70;92962.81;565315;26;865;-72
2024/04/19 00:43:20;;;;;;;3.20;2.83;;;;;;;1.68;76.61;92967.00;565285;26;822;-72
2024/04/19 00:43:36;;;;;;;3.07;2.77;;;;;;;1.68;76.55;92962.31;565249;26;858;-72
2024/04/19 00:43:51;;;;;;;3.00;2.70;;;;;;;1.68;76.61;92962.31;565153;26;802;-72
2024/04/19 00:44:07;;;;;;;2.57;2.37;;;;;;;1.70;76.61;92969.94;567005;26;834;-72
2024/04/19 00:44:22;;;;;;;3.00;2.60;;;;;;;1.71;76.55;92969.44;569185;26;801;-72
2024/04/19 00:44:37;;;;;;;3.30;2.80;;;;;;;1.61;76.64;92948.47;565212;26;861;-72
2024/04/19 00:44:53;;;;;;;3.13;2.83;;;;;;;1.75;76.47;92964.50;565296;26;1365;-72
2024/04/19 00:45:35;;;;;;;3.47;2.95;;;;;;;1.81;76.35;92970.63;565205;26;913;-72
2024/04/19 00:45:51;;;;;;;3.05;2.65;;;;;;;1.86;76.18;92971.84;557580;26;1058;-72
2024/04/19 00:46:07;;;;;;;3.63;2.67;;;;;;;1.88;76.12;92975.56;565288;26;803;-72
2024/04/19 00:46:22;;;;;;;4.47;2.57;;;;;;;1.90;76.00;92969.59;565261;26;837;-72
2024/04/19 00:46:38;;;;;;;4.65;2.80;;;;;;;1.92;75.93;92967.84;565309;26;842;-72
2024/04/19 00:46:53;;;;;;;4.20;3.00;;;;;;;1.95;75.83;92969.56;565526;26;837;-72
2024/04/19 00:47:10;;;;;;;3.63;2.83;;;;;;;1.98;75.85;92974.00;565458;26;795;-72
2024/04/19 00:47:26;;;;;;;2.95;2.65;;;;;;;1.98;75.60;92963.09;565433;26;877;-72
2024/04/19 00:47:42;;;;;;;3.00;2.70;;;;;;;2.00;75.77;92971.50;561475;26;928;-72
2024/04/19 00:47:57;;;;;;;2.90;2.60;;;;;;;2.02;75.61;92971.75;557767;26;1049;-72
2024/04/19 00:48:17;;;;;;;3.37;2.57;;;;;;;2.04;75.45;92971.22;557761;26;862;-72
2024/04/19 00:48:33;;;;;;;3.80;2.72;;;;;;;2.06;75.48;92972.19;557791;26;969;-72
2024/04/19 00:48:49;;;;;;;3.10;2.72;;;;;;;2.05;75.52;92968.00;557781;26;827;-72
2024/04/19 00:49:04;;;;;;;2.97;2.58;;;;;;;2.03;75.36;92969.75;554195;26;819;-72
2024/04/19 00:49:20;;;;;;;3.73;2.70;;;;;;;2.00;75.33;92976.94;550290;26;1073;-72
2024/04/19 00:49:35;;;;;;;3.95;2.72;;;;;;;1.97;75.46;92972.50;552198;26;958;-72
2024/04/19 00:49:51;;;;;;;3.87;2.80;;;;;;;1.96;75.56;92968.31;552289;26;838;-72
2024/04/19 00:50:08;;;;;;;3.45;2.80;;;;;;;1.95;75.48;92966.09;554129;26;807;-72
2024/04/19 00:50:24;;;;;;;2.90;2.70;;;;;;;1.97;75.60;92971.78;554115;26;894;-72
2024/04/19 00:50:40;;;;;;;3.08;2.88;;;;;;;1.98;75.66;92968.56;554028;26;843;-72
2024/04/19 00:50:58;;;;;;;3.30;3.00;;;;;;;1.99;75.59;92974.75;555566;26;890;-71
2024/04/19 00:51:13;;;;;;;3.47;3.08;;;;;;;1.99;75.62;92972.75;557765;26;949;-72
2024/04/19 00:51:29;;;;;;;3.40;2.90;;;;;;;2.01;75.63;92974.97;559609;26;945;-72
2024/04/19 00:51:44;;;;;;;3.03;2.65;;;;;;;1.81;75.50;92937.97;563423;26;1045;-72
2024/04/19 00:52:00;;;;;;;3.00;2.67;;;;;;;2.05;75.54;92967.28;565506;26;814;-72
2024/04/19 00:52:16;;;;;;;3.00;2.70;;;;;;;2.07;75.52;92970.97;561362;26;1004;-72
2024/04/19 00:52:32;;;;;;;3.38;2.90;;;;;;;2.10;75.50;92963.78;561498;26;919;-72
2024/04/19 00:52:47;;;;;;;3.47;2.70;;;;;;;2.12;75.41;92967.44;557734;26;858;-72
2024/04/19 00:53:03;;;;;;;3.60;2.60;;;;;;;2.07;75.23;92956.59;557882;26;787;-72
2024/04/19 00:53:22;;;;;;;3.25;2.50;;;;;;;2.11;75.06;92968.72;557847;26;846;-72
2024/04/19 00:53:37;;;;;;;2.80;2.50;;;;;;;2.08;75.42;92958.09;557712;26;846;-72
2024/04/19 00:53:53;;;;;;;2.90;2.70;;;;;;;2.05;75.35;92973.47;557864;26;949;-72
2024/04/19 00:54:08;;;;;;;3.08;2.78;;;;;;;2.06;75.40;92971.47;559363;26;945;-72
2024/04/19 00:54:24;;;;;;;3.20;2.77;;;;;;;2.04;75.68;92969.25;561590;26;799;-72
2024/04/19 00:54:40;;;;;;;3.33;2.75;;;;;;;2.03;75.63;92972.47;562988;26;779;-72
2024/04/19 00:54:56;;;;;;;3.90;2.90;;;;;;;2.06;75.55;92976.91;565356;26;941;-72
2024/04/19 00:55:11;;;;;;;4.18;2.80;;;;;;;2.08;75.50;92972.44;565369;26;862;-72
2024/04/19 00:55:28;;;;;;;4.33;2.90;;;;;;;2.11;75.55;92974.16;565385;26;814;-72
2024/04/19 00:55:43;;;;;;;4.18;3.17;;;;;;;2.13;75.49;92963.50;565397;26;881;-72
2024/04/19 00:56:00;;;;;;;3.63;2.87;;;;;;;2.15;75.29;92973.88;565399;26;884;-72
2024/04/19 00:56:16;;;;;;;3.67;3.25;;;;;;;2.15;75.36;92971.91;565442;26;897;-72
2024/04/19 00:56:32;;;;;;;4.03;3.60;;;;;;;2.18;75.33;92972.88;565486;26;842;-71
2024/04/19 00:56:49;;;;;;;4.28;3.78;;;;;;;2.20;75.35;92973.84;565352;26;1857;-72
2024/04/19 00:57:04;;;;;;;5.03;4.07;;;;;;;2.19;75.20;92961.47;561517;26;873;-72
2024/04/19 00:57:20;;;;;;;5.70;4.50;;;;;;;2.21;75.21;92969.13;561436;26;901;-72
2024/04/19 00:57:36;;;;;;;5.20;4.50;;;;;;;2.21;75.17;92969.88;561359;26;937;-72
2024/04/19 00:57:52;;;;;;;5.13;4.18;;;;;;;2.04;75.12;92942.03;561493;26;818;-72
2024/04/19 00:58:07;;;;;;;5.30;4.32;;;;;;;2.20;75.03;92968.41;561508;26;869;-72
2024/04/19 00:58:26;;;;;;;5.23;4.47;;;;;;;2.23;74.99;92967.38;561435;26;882;-72
2024/04/19 00:58:42;;;;;;;5.07;4.30;;;;;;;2.24;74.89;92965.41;561433;26;870;-72
2024/04/19 00:58:58;;;;;;;5.80;4.50;;;;;;;2.26;74.88;92971.06;561577;26;779;-72
2024/04/19 00:59:13;;;;;;;5.72;4.30;;;;;;;2.27;74.64;92967.84;561407;26;988;-72
2024/04/19 00:59:30;;;;;;;4.72;4.22;;;;;;;2.13;74.49;92947.16;563301;26;842;-72
2024/04/19 00:59:46;;;;;;;5.80;3.92;;;;;;;2.26;74.48;92966.38;565517;26;884;-72
2024/04/19 01:00:03;;;;;;;6.18;3.95;;;;;;;2.27;74.07;92967.84;561441;26;960;-72
2024/04/19 01:00:18;;;;;;;5.55;4.53;;;;;;;2.30;74.23;92966.09;561451;26;953;-72
2024/04/19 01:00:34;;;;;;;5.10;4.57;;;;;;;2.28;74.10;92965.84;561377;26;790;-72
2024/04/19 01:00:50;;;;;;;5.90;4.85;;;;;;;2.32;74.10;92962.88;561506;26;854;-72
2024/04/19 01:01:06;;;;;;;6.45;4.78;;;;;;;2.33;73.89;92965.09;561464;26;929;-72
2024/04/19 01:01:22;;;;;;;4.97;4.07;;;;;;;2.34;73.77;92965.81;561528;26;921;-72
2024/04/19 01:01:37;;;;;;;4.47;4.07;;;;;;;2.35;73.64;92962.59;561402;26;940;-72
2024/04/19 01:01:54;;;;;;;5.25;4.32;;;;;;;2.37;73.59;92967.53;563036;26;802;-72
2024/04/19 01:02:10;;;;;;;5.75;4.45;;;;;;;2.39;73.34;92965.03;565360;26;913;-73
2024/04/19 01:02:26;;;;;;;4.72;3.95;;;;;;;2.37;73.16;92965.53;565411;26;839;-72
2024/04/19 01:02:42;;;;;;;4.20;3.80;;;;;;;2.41;73.10;92970.72;561366;26;992;-72
2024/04/19 01:02:58;;;;;;;3.78;3.47;;;;;;;2.41;73.16;92967.97;561467;26;862;-72
2024/04/19 01:03:13;;;;;;;3.88;3.50;;;;;;;2.41;73.23;92966.00;561457;26;850;-72
2024/04/19 01:03:29;;;;;;;4.60;3.90;;;;;;;2.41;73.20;92971.44;561461;26;936;-72
2024/04/19 01:03:44;;;;;;;4.50;3.50;;;;;;;2.18;73.16;92938.22;557703;26;941;-72
2024/04/19 01:04:00;;;;;;;3.60;3.07;;;;;;;2.38;73.10;92972.47;557879;26;763;-72
2024/04/19 01:04:15;;;;;;;3.30;3.00;;;;;;;2.35;73.19;92970.75;557807;26;881;-72
2024/04/19 01:04:31;;;;;;;3.63;3.03;;;;;;;2.32;73.24;92971.03;558670;26;819;-72
2024/04/19 01:04:47;;;;;;;3.33;3.03;;;;;;;2.29;73.48;92972.78;557689;26;866;-72
2024/04/19 01:05:03;;;;;;;4.07;3.17;;;;;;;2.23;73.75;92970.09;557805;26;949;-72
2024/04/19 01:05:18;;;;;;;4.88;3.15;;;;;;;2.20;73.62;92970.38;557671;26;947;-72
2024/04/19 01:05:34;;;;;;;4.07;3.13;;;;;;;2.16;73.60;92973.38;558647;26;830;-72
2024/04/19 01:05:49;;;;;;;3.45;3.15;;;;;;;2.15;73.49;92977.34;561454;26;941;-72
2024/04/19 01:06:05;;;;;;;3.40;3.10;;;;;;;2.15;73.68;92974.63;561452;26;921;-72
2024/04/19 01:06:21;;;;;;;3.13;2.83;;;;;;;2.16;73.89;92978.84;561463;26;930;-72
2024/04/19 01:06:36;;;;;;;2.92;2.72;;;;;;;2.18;73.76;92975.59;562314;26;930;-72
2024/04/19 01:06:51;;;;;;;2.80;2.60;;;;;;;2.20;73.79;92973.09;565479;26;822;-72
2024/04/19 01:07:07;;;;;;;2.97;2.72;;;;;;;2.22;73.78;92968.63;565375;26;913;-72
2024/04/19 01:07:22;;;;;;;3.57;2.87;;;;;;;2.23;73.84;92974.81;565340;26;795;-71
2024/04/19 01:07:38;;;;;;;3.25;2.75;;;;;;;2.26;73.79;92968.34;565330;26;842;-72
2024/04/19 01:07:53;;;;;;;3.37;2.83;;;;;;;2.26;73.70;92966.38;565424;26;933;-72
2024/04/19 01:08:09;;;;;;;3.83;2.80;;;;;;;2.28;73.60;92968.59;565387;26;866;-72
2024/04/19 01:08:25;;;;;;;3.15;2.63;;;;;;;2.29;73.53;92970.06;565423;26;1046;-72
2024/04/19 01:08:40;;;;;;;2.85;2.55;;;;;;;2.29;73.52;92968.09;565420;26;857;-72
2024/04/19 01:08:56;;;;;;;3.00;2.70;;;;;;;2.29;73.43;92968.09;565541;26;830;-72
2024/04/19 01:09:11;;;;;;;3.28;2.92;;;;;;;2.33;73.49;92961.63;561416;26;929;-71
2024/04/19 01:09:26;;;;;;;3.37;3.07;;;;;;;2.34;73.30;92965.81;561434;26;834;-72
2024/04/19 01:09:42;;;;;;;3.75;3.00;;;;;;;2.33;73.34;92967.81;561313;26;882;-72
2024/04/19 01:09:57;;;;;;;3.63;2.90;;;;;;;2.35;73.33;92965.31;557834;26;948;-72
2024/04/19 01:10:13;;;;;;;3.60;3.03;;;;;;;2.34;73.38;92969.28;557729;26;846;-72
2024/04/19 01:10:29;;;;;;;3.35;2.95;;;;;;;2.33;73.14;92965.09;557687;26;924;-72
2024/04/19 01:10:44;;;;;;;3.13;2.83;;;;;;;2.11;73.31;92935.28;558736;26;1283;-72
2024/04/19 01:11:00;;;;;;;3.58;2.92;;;;;;;2.29;73.19;92962.66;562135;26;834;-72
2024/04/19 01:11:15;;;;;;;3.23;2.77;;;;;;;2.27;73.28;92961.66;565249;26;961;-72
2024/04/19 01:11:31;;;;;;;3.00;2.80;;;;;;;2.23;73.38;92967.38;561287;26;865;-72
2024/04/19 01:11:47;;;;;;;3.30;2.97;;;;;;;2.23;73.55;92961.94;558512;26;803;-71
2024/04/19 01:12:03;;;;;;;3.30;3.00;;;;;;;2.25;73.58;92964.16;561495;26;841;-72
2024/04/19 01:12:19;;;;;;;3.08;2.80;;;;;;;2.26;73.41;92965.63;557688;26;898;-71
2024/04/19 01:12:35;;;;;;;2.83;2.55;;;;;;;2.26;73.36;92965.63;557823;26;954;-72
2024/04/19 01:12:50;;;;;;;3.00;2.55;;;;;;;2.28;73.27;92965.84;557556;26;823;-71
2024/04/19 01:13:06;;;;;;;2.78;2.45;;;;;;;2.29;73.34;92967.34;557751;26;869;-72
2024/04/19 01:13:22;;;;;;;3.07;2.77;;;;;;;2.29;73.24;92970.81;558981;26;913;-72
2024/04/19 01:13:37;;;;;;;3.10;2.80;;;;;;;2.30;73.13;92966.09;562503;26;857;-72
2024/04/19 01:13:53;;;;;;;2.80;2.60;;;;;;;2.31;73.26;92967.56;565322;26;853;-72
2024/04/19 01:14:08;;;;;;;2.67;2.47;;;;;;;2.33;73.13;92970.53;566099;26;850;-72
2024/04/19 01:14:24;;;;;;;2.70;2.50;;;;;;;2.33;73.01;92965.09;569146;26;850;-71
2024/04/19 01:14:39;;;;;;;2.60;2.40;;;;;;;2.31;73.22;92962.13;569089;26;911;-72
2024/04/19 01:14:54;;;;;;;2.80;2.53;;;;;;;2.35;73.11;92965.31;569389;26;912;-72
2024/04/19 01:15:25;;;;;;;3.67;2.78;;;;;;;2.37;72.95;92971.00;569195;26;822;-72
2024/04/19 01:15:41;;;;;;;3.70;2.70;;;;;;;2.30;72.89;92955.19;568980;26;958;-72
2024/04/19 01:15:56;;;;;;;3.50;2.50;;;;;;;2.38;72.78;92969.75;565155;26;841;-71
2024/04/19 01:16:12;;;;;;;2.70;2.50;;;;;;;2.40;72.67;92963.78;565234;26;829;-72
2024/04/19 01:16:27;;;;;;;2.70;2.50;;;;;;;2.40;72.53;92971.97;565255;26;767;-71
2024/04/19 01:16:43;;;;;;;2.65;2.45;;;;;;;2.40;72.53;92970.00;565206;26;798;-72
2024/04/19 01:16:58;;;;;;;2.50;2.30;;;;;;;2.41;72.22;92973.44;565138;26;1887;-72
2024/04/19 01:17:14;;;;;;;2.55;2.30;;;;;;;2.39;72.15;92968.50;565181;26;936;-72
2024/04/19 01:17:29;;;;;;;2.80;2.47;;;;;;;2.43;72.05;92974.41;565148;26;842;-72
2024/04/19 01:17:45;;;;;;;2.47;2.28;;;;;;;2.43;71.94;92971.69;565867;26;857;-72
2024/04/19 01:18:00;;;;;;;2.30;2.10;;;;;;;2.43;71.92;92973.66;569152;26;1083;-72
2024/04/19 01:18:16;;;;;;;2.50;2.30;;;;;;;2.41;71.89;92966.00;569121;26;1020;-72
2024/04/19 01:18:31;;;;;;;2.43;2.20;;;;;;;2.38;71.91;92974.47;569180;26;865;-72